Time,TemperatureF,DewpointF,PressureIn,WindDirection,WindDirectionDegrees,WindSpeedMPH,WindSpeedGustMPH,Humidity,HourlyPrecipIn,Conditions,Clouds,dailyrainin,SoftwareType,DateUTC
2013-01-02 00:03:00,12.0,9.0,29.97,West,260,3.0,-999.0,85,-99.99,,,-99.99,,2013-01-02 05:03:00,
2013-01-02 00:12:00,12.0,9.0,29.97,West,270,3.0,-999.0,85,-99.99,,,-99.99,,2013-01-02 05:12:00,
2013-01-02 00:22:00,12.0,9.0,29.97,WSW,250,6.0,-999.0,85,-99.99,,,-99.99,,2013-01-02 05:22:00,
2013-01-02 00:33:00,12.0,9.0,29.97,WSW,240,7.0,-999.0,85,-99.99,,,-99.99,,2013-01-02 05:33:00,
2013-01-02 00:42:00,12.0,9.0,29.97,WSW,250,7.0,-999.0,85,-99.99,,,-99.99,,2013-01-02 05:42:00,
2013-01-02 00:52:00,12.0,9.0,29.97,West,260,6.0,-999.0,85,-99.99,,,-99.99,,2013-01-02 05:52:00,
2013-01-02 01:02:00,12.0,9.0,29.97,West,260,6.0,-999.0,85,-99.99,,,-99.99,,2013-01-02 06:02:00,
2013-01-02 01:12:00,10.0,7.0,29.97,North,0,0.0,-999.0,85,-99.99,,,-99.99,,2013-01-02 06:12:00,
2013-01-02 01:22:00,12.0,9.0,29.97,North,0,0.0,-999.0,85,-99.99,,,-99.99,,2013-01-02 06:22:00,
2013-01-02 01:32:00,12.0,9.0,29.97,West,260,5.0,-999.0,85,-99.99,,,-99.99,,2013-01-02 06:32:00,
2013-01-02 01:42:00,12.0,9.0,29.98,West,260,5.0,-999.0,85,-99.99,,,-99.99,,2013-01-02 06:42:00,
2013-01-02 01:52:00,10.0,7.0,29.99,West,270,6.0,-999.0,85,-99.99,,,-99.99,,2013-01-02 06:52:00,
2013-01-02 02:02:00,10.0,7.0,29.99,West,270,6.0,-999.0,85,-99.99,,,-99.99,,2013-01-02 07:02:00,
2013-01-02 02:12:00,10.0,7.0,29.99,North,0,0.0,-999.0,85,-99.99,,,-99.99,,2013-01-02 07:12:00,
2013-01-02 02:22:00,10.0,7.0,29.99,West,270,6.0,-999.0,85,-99.99,,,-99.99,,2013-01-02 07:22:00,
2013-01-02 02:32:00,10.0,7.0,29.99,West,260,5.0,-999.0,85,-99.99,,,-99.99,,2013-01-02 07:32:00,
2013-01-02 02:42:00,10.0,7.0,29.98,West,260,5.0,-999.0,85,-99.99,,,-99.99,,2013-01-02 07:42:00,
2013-01-02 02:52:00,10.0,7.0,29.99,West,260,7.0,-999.0,85,-99.99,,,-99.99,,2013-01-02 07:52:00,
2013-01-02 03:02:00,10.0,7.0,29.99,West,260,7.0,-999.0,85,-99.99,,,-99.99,,2013-01-02 08:02:00,
2013-01-02 03:12:00,10.0,7.0,29.99,West,260,7.0,-999.0,85,-99.99,,,-99.99,,2013-01-02 08:12:00,
2013-01-02 03:22:00,12.0,7.0,29.98,West,270,6.0,-999.0,78,-99.99,,,-99.99,,2013-01-02 08:22:00,
2013-01-02 03:32:00,12.0,7.0,29.98,WNW,300,3.0,-999.0,78,-99.99,,,-99.99,,2013-01-02 08:32:00,
2013-01-02 03:42:00,12.0,7.0,29.98,North,0,0.0,-999.0,78,-99.99,,,-99.99,,2013-01-02 08:42:00,
2013-01-02 03:52:00,12.0,7.0,29.97,North,0,0.0,-999.0,78,-99.99,,,-99.99,,2013-01-02 08:52:00,
2013-01-02 04:02:00,12.0,7.0,29.97,North,0,0.0,-999.0,78,-99.99,,,-99.99,,2013-01-02 09:02:00,
2013-01-02 04:12:00,9.0,5.0,29.97,North,0,0.0,-999.0,84,-99.99,,,-99.99,,2013-01-02 09:12:00,
2013-01-02 04:22:00,9.0,5.0,29.97,North,0,0.0,-999.0,84,-99.99,,,-99.99,,2013-01-02 09:22:00,
2013-01-02 04:32:00,9.0,5.0,29.96,North,0,0.0,-999.0,84,-99.99,,,-99.99,,2013-01-02 09:32:00,
2013-01-02 04:43:00,9.0,5.0,29.96,SW,220,3.0,-999.0,84,-99.99,,,-99.99,,2013-01-02 09:43:00,
2013-01-02 04:52:00,7.0,3.0,29.96,West,280,3.0,-999.0,84,-99.99,,,-99.99,,2013-01-02 09:52:00,
2013-01-02 05:02:00,7.0,3.0,29.96,West,280,3.0,-999.0,84,-99.99,,,-99.99,,2013-01-02 10:02:00,
2013-01-02 05:12:00,7.0,3.0,29.96,North,0,0.0,-999.0,84,-99.99,,,-99.99,,2013-01-02 10:12:00,
2013-01-02 05:22:00,7.0,3.0,29.96,North,0,0.0,-999.0,84,-99.99,,,-99.99,,2013-01-02 10:22:00,
2013-01-02 05:32:00,7.0,5.0,29.96,WSW,250,3.0,-999.0,92,-99.99,,,-99.99,,2013-01-02 10:32:00,
2013-01-02 05:42:00,9.0,5.0,29.95,North,0,0.0,-999.0,84,-99.99,,,-99.99,,2013-01-02 10:42:00,
2013-01-02 05:52:00,9.0,7.0,29.95,North,0,0.0,-999.0,92,-99.99,,,-99.99,,2013-01-02 10:52:00,
2013-01-02 06:02:00,9.0,7.0,29.95,North,0,0.0,-999.0,92,-99.99,,,-99.99,,2013-01-02 11:02:00,
2013-01-02 06:12:00,9.0,7.0,29.95,North,0,0.0,-999.0,92,-99.99,,,-99.99,,2013-01-02 11:12:00,
2013-01-02 06:22:00,9.0,7.0,29.95,North,0,0.0,-999.0,92,-99.99,,,-99.99,,2013-01-02 11:22:00,
2013-01-02 06:32:00,9.0,7.0,29.95,North,0,0.0,-999.0,92,-99.99,,,-99.99,,2013-01-02 11:32:00,
2013-01-02 06:42:00,9.0,5.0,29.95,North,0,0.0,-999.0,84,-99.99,,,-99.99,,2013-01-02 11:42:00,
2013-01-02 06:52:00,9.0,5.0,29.96,North,0,0.0,-999.0,84,-99.99,,,-99.99,,2013-01-02 11:52:00,
2013-01-02 07:03:00,9.0,5.0,29.96,North,0,0.0,-999.0,84,-99.99,,,-99.99,,2013-01-02 12:03:00,
2013-01-02 07:12:00,9.0,7.0,29.95,North,0,0.0,-999.0,92,-99.99,,,-99.99,,2013-01-02 12:12:00,
2013-01-02 07:22:00,9.0,7.0,29.95,North,0,0.0,-999.0,92,-99.99,,,-99.99,,2013-01-02 12:22:00,
2013-01-02 07:33:00,9.0,7.0,29.95,North,0,0.0,-999.0,92,-99.99,,,-99.99,,2013-01-02 12:33:00,
2013-01-02 07:42:00,9.0,7.0,29.94,North,0,0.0,-999.0,92,-99.99,,,-99.99,,2013-01-02 12:42:00,
2013-01-02 07:53:00,10.0,7.0,29.94,North,0,0.0,-999.0,85,-99.99,,,-99.99,,2013-01-02 12:53:00,
2013-01-02 08:02:00,10.0,7.0,29.94,North,0,0.0,-999.0,85,-99.99,,,-99.99,,2013-01-02 13:02:00,
2013-01-02 08:12:00,10.0,7.0,29.94,North,0,0.0,-999.0,85,0.00,,,-99.99,,2013-01-02 13:12:00,
2013-01-02 08:22:00,10.0,9.0,29.95,North,0,0.0,-999.0,92,0.00,,,-99.99,,2013-01-02 13:22:00,
2013-01-02 08:32:00,12.0,9.0,29.95,North,0,0.0,-999.0,85,0.00,,,-99.99,,2013-01-02 13:32:00,
2013-01-02 08:42:00,12.0,9.0,29.95,North,0,0.0,-999.0,85,0.00,,,-99.99,,2013-01-02 13:42:00,
2013-01-02 08:52:00,12.0,10.0,29.96,North,0,0.0,-999.0,92,-99.99,,,-99.99,,2013-01-02 13:52:00,
2013-01-02 09:02:00,12.0,10.0,29.96,North,0,0.0,-999.0,92,-99.99,,,-99.99,,2013-01-02 14:02:00,
2013-01-02 09:11:00,14.0,10.0,29.96,North,0,0.0,-999.0,85,-99.99,,,-99.99,,2013-01-02 14:11:00,
2013-01-02 09:22:00,16.0,10.0,29.97,North,0,0.0,-999.0,78,-99.99,,,-99.99,,2013-01-02 14:22:00,
2013-01-02 09:32:00,16.0,10.0,29.97,North,10,3.0,-999.0,78,-99.99,,,-99.99,,2013-01-02 14:32:00,
2013-01-02 09:42:00,16.0,10.0,29.98,NNE,20,3.0,-999.0,78,-99.99,,,-99.99,,2013-01-02 14:42:00,
2013-01-02 09:53:00,16.0,12.0,29.98,NNE,30,3.0,-999.0,85,-99.99,,,-99.99,,2013-01-02 14:53:00,
2013-01-02 10:03:00,16.0,12.0,29.98,NNE,30,3.0,-999.0,85,-99.99,,,-99.99,,2013-01-02 15:03:00,
2013-01-02 10:11:00,18.0,12.0,29.99,North,0,0.0,-999.0,78,-99.99,,,-99.99,,2013-01-02 15:11:00,
2013-01-02 10:22:00,19.0,12.0,29.99,North,0,0.0,-999.0,73,-99.99,,,-99.99,,2013-01-02 15:22:00,
2013-01-02 10:32:00,19.0,12.0,29.99,West,270,5.0,-999.0,73,-99.99,,,-99.99,,2013-01-02 15:32:00,
2013-01-02 10:42:00,19.0,12.0,29.99,WNW,290,5.0,-999.0,73,-99.99,,,-99.99,,2013-01-02 15:42:00,
2013-01-02 10:53:00,21.0,16.0,29.99,West,280,10.0,-999.0,79,-99.99,,,-99.99,,2013-01-02 15:53:00,
2013-01-02 11:03:00,21.0,16.0,29.99,West,280,10.0,-999.0,79,-99.99,,,-99.99,,2013-01-02 16:03:00,
2013-01-02 11:13:00,21.0,16.0,29.98,West,280,10.0,-999.0,79,-99.99,,,-99.99,,2013-01-02 16:13:00,
2013-01-02 11:22:00,21.0,18.0,29.99,West,280,12.0,-999.0,85,-99.99,,,-99.99,,2013-01-02 16:22:00,
2013-01-02 11:33:00,21.0,18.0,29.98,West,280,13.0,-999.0,85,-99.99,,,-99.99,,2013-01-02 16:33:00,
2013-01-02 11:43:00,21.0,18.0,29.98,West,280,13.0,-999.0,85,-99.99,,,-99.99,,2013-01-02 16:43:00,
2013-01-02 11:53:00,21.0,18.0,29.98,West,280,10.0,-999.0,85,-99.99,,,-99.99,,2013-01-02 16:53:00,
2013-01-02 12:03:00,21.0,18.0,29.98,West,280,10.0,-999.0,85,-99.99,,,-99.99,,2013-01-02 17:03:00,
2013-01-02 12:13:00,21.0,18.0,29.98,West,280,10.0,-999.0,85,-99.99,,,-99.99,,2013-01-02 17:13:00,
2013-01-02 12:23:00,23.0,18.0,29.98,West,270,12.0,18.0,79,-99.99,,,-99.99,,2013-01-02 17:23:00,
2013-01-02 12:33:00,25.0,18.0,29.97,West,280,15.0,21.0,73,-99.99,,,-99.99,,2013-01-02 17:33:00,
2013-01-02 12:43:00,25.0,18.0,29.97,West,270,14.0,23.0,73,-99.99,,,-99.99,,2013-01-02 17:43:00,
2013-01-02 12:53:00,25.0,18.0,29.97,West,280,12.0,17.0,73,-99.99,,,-99.99,,2013-01-02 17:53:00,
2013-01-02 13:03:00,25.0,18.0,29.97,West,280,12.0,17.0,73,-99.99,,,-99.99,,2013-01-02 18:03:00,
2013-01-02 13:12:00,25.0,18.0,29.97,West,270,15.0,23.0,73,-99.99,,,-99.99,,2013-01-02 18:12:00,
2013-01-02 13:22:00,25.0,18.0,29.97,West,270,13.0,17.0,73,-99.99,,,-99.99,,2013-01-02 18:22:00,
2013-01-02 13:33:00,25.0,18.0,29.97,West,280,13.0,22.0,73,-99.99,,,-99.99,,2013-01-02 18:33:00,
2013-01-02 13:43:00,25.0,18.0,29.97,West,280,12.0,21.0,73,-99.99,,,-99.99,,2013-01-02 18:43:00,
2013-01-02 13:53:00,25.0,18.0,29.98,WNW,290,13.0,18.0,73,-99.99,,,-99.99,,2013-01-02 18:53:00,
2013-01-02 14:03:00,25.0,18.0,29.98,WNW,290,13.0,18.0,73,-99.99,,,-99.99,,2013-01-02 19:03:00,
2013-01-02 14:12:00,27.0,18.0,29.98,West,270,13.0,18.0,68,-99.99,,,-99.99,,2013-01-02 19:12:00,
2013-01-02 14:23:00,27.0,18.0,29.99,WNW,290,15.0,24.0,68,-99.99,,,-99.99,,2013-01-02 19:23:00,
2013-01-02 14:33:00,27.0,18.0,29.99,WNW,290,13.0,16.0,68,-99.99,,,-99.99,,2013-01-02 19:33:00,
2013-01-02 14:43:00,27.0,18.0,29.99,WNW,290,10.0,20.0,68,-99.99,,,-99.99,,2013-01-02 19:43:00,
2013-01-02 14:52:00,27.0,18.0,30.00,WNW,290,13.0,18.0,68,-99.99,,,-99.99,,2013-01-02 19:52:00,
2013-01-02 15:03:00,27.0,18.0,30.00,WNW,290,13.0,18.0,68,-99.99,,,-99.99,,2013-01-02 20:03:00,
2013-01-02 15:12:00,27.0,16.0,30.01,West,280,17.0,23.0,63,-99.99,,,-99.99,,2013-01-02 20:12:00,
2013-01-02 15:23:00,27.0,12.0,30.01,WNW,290,14.0,24.0,54,-99.99,,,-99.99,,2013-01-02 20:23:00,
2013-01-02 15:33:00,27.0,12.0,30.02,WNW,300,17.0,21.0,54,-99.99,,,-99.99,,2013-01-02 20:33:00,
2013-01-02 15:42:00,27.0,12.0,30.03,WNW,290,14.0,21.0,54,-99.99,,,-99.99,,2013-01-02 20:42:00,
2013-01-02 15:53:00,25.0,12.0,30.03,WNW,290,13.0,-999.0,58,-99.99,,,-99.99,,2013-01-02 20:53:00,
2013-01-02 16:03:00,25.0,12.0,30.03,WNW,290,13.0,-999.0,58,-99.99,,,-99.99,,2013-01-02 21:03:00,
2013-01-02 16:13:00,25.0,12.0,30.04,WNW,290,16.0,-999.0,58,-99.99,,,-99.99,,2013-01-02 21:13:00,
2013-01-02 16:22:00,25.0,12.0,30.05,West,280,12.0,18.0,58,-99.99,,,-99.99,,2013-01-02 21:22:00,
2013-01-02 16:33:00,25.0,12.0,30.05,WNW,290,17.0,23.0,58,-99.99,,,-99.99,,2013-01-02 21:33:00,
2013-01-02 16:43:00,25.0,12.0,30.06,West,280,15.0,18.0,58,-99.99,,,-99.99,,2013-01-02 21:43:00,
2013-01-02 16:52:00,23.0,10.0,30.06,West,280,14.0,18.0,57,-99.99,,,-99.99,,2013-01-02 21:52:00,
2013-01-02 17:03:00,23.0,10.0,30.06,West,280,14.0,18.0,57,-99.99,,,-99.99,,2013-01-02 22:03:00,
2013-01-02 17:12:00,21.0,10.0,30.07,West,280,14.0,20.0,62,-99.99,,,-99.99,,2013-01-02 22:12:00,
2013-01-02 17:22:00,21.0,9.0,30.07,WNW,290,12.0,20.0,57,-99.99,,,-99.99,,2013-01-02 22:22:00,
2013-01-02 17:32:00,21.0,9.0,30.08,West,280,12.0,-999.0,57,-99.99,,,-99.99,,2013-01-02 22:32:00,
2013-01-02 17:42:00,21.0,9.0,30.08,WNW,290,10.0,18.0,57,-99.99,,,-99.99,,2013-01-02 22:42:00,
2013-01-02 17:52:00,21.0,9.0,30.09,WNW,300,12.0,17.0,57,-99.99,,,-99.99,,2013-01-02 22:52:00,
2013-01-02 18:03:00,21.0,9.0,30.09,WNW,300,12.0,17.0,57,-99.99,,,-99.99,,2013-01-02 23:03:00,
2013-01-02 18:12:00,19.0,9.0,30.09,WNW,290,12.0,-999.0,62,-99.99,,,-99.99,,2013-01-02 23:12:00,
2013-01-02 18:23:00,19.0,9.0,30.10,WNW,290,13.0,-999.0,62,-99.99,,,-99.99,,2013-01-02 23:23:00,
2013-01-02 18:33:00,19.0,7.0,30.10,WNW,300,12.0,16.0,57,-99.99,,,-99.99,,2013-01-02 23:33:00,
2013-01-02 18:42:00,19.0,7.0,30.10,WNW,300,13.0,16.0,57,-99.99,,,-99.99,,2013-01-02 23:42:00,
2013-01-02 18:52:00,19.0,7.0,30.11,WNW,300,10.0,-999.0,57,-99.99,,,-99.99,,2013-01-02 23:52:00,
2013-01-02 19:02:00,19.0,7.0,30.11,WNW,300,10.0,-999.0,57,-99.99,,,-99.99,,2013-01-03 00:02:00,
2013-01-02 19:12:00,18.0,7.0,30.12,NW,310,10.0,-999.0,62,-99.99,,,-99.99,,2013-01-03 00:12:00,
2013-01-02 19:22:00,18.0,7.0,30.12,NW,310,7.0,-999.0,62,-99.99,,,-99.99,,2013-01-03 00:22:00,
2013-01-02 19:38:00,18.0,7.0,30.12,NW,310,7.0,-999.0,62,-99.99,,,-99.99,,2013-01-03 00:38:00,
2013-01-02 19:52:00,12.0,5.0,30.13,NE,50,6.0,-999.0,72,-99.99,,,-99.99,,2013-01-03 00:52:00,
2013-01-02 20:02:00,12.0,5.0,30.13,NE,50,6.0,-999.0,72,-99.99,,,-99.99,,2013-01-03 01:02:00,
2013-01-02 20:12:00,10.0,3.0,30.14,NE,40,7.0,-999.0,72,-99.99,,,-99.99,,2013-01-03 01:12:00,
2013-01-02 20:22:00,10.0,3.0,30.14,NE,40,7.0,-999.0,72,-99.99,,,-99.99,,2013-01-03 01:22:00,
2013-01-02 20:32:00,9.0,3.0,30.15,NE,40,12.0,-999.0,78,-99.99,,,-99.99,,2013-01-03 01:32:00,
2013-01-02 20:42:00,9.0,3.0,30.14,NE,40,13.0,-999.0,78,-99.99,,,-99.99,,2013-01-03 01:42:00,
2013-01-02 20:52:00,9.0,1.0,30.17,NNE,30,7.0,18.0,71,-99.99,,,-99.99,,2013-01-03 01:52:00,
2013-01-02 21:02:00,9.0,1.0,30.17,NNE,30,7.0,18.0,71,-99.99,,,-99.99,,2013-01-03 02:02:00,
2013-01-02 21:12:00,7.0,1.0,30.16,NNE,30,6.0,-999.0,78,-99.99,,,-99.99,,2013-01-03 02:12:00,
2013-01-02 21:22:00,7.0,1.0,30.17,NNE,30,10.0,-999.0,78,-99.99,,,-99.99,,2013-01-03 02:22:00,
2013-01-02 21:33:00,7.0,0.0,30.18,NNE,30,12.0,-999.0,71,-99.99,,,-99.99,,2013-01-03 02:33:00,
2013-01-02 21:42:00,7.0,0.0,30.18,NNE,30,12.0,-999.0,71,-99.99,,,-99.99,,2013-01-03 02:42:00,
2013-01-02 21:52:00,7.0,0.0,30.18,NNE,30,12.0,-999.0,71,-99.99,,,-99.99,,2013-01-03 02:52:00,
2013-01-02 22:02:00,7.0,0.0,30.19,NNE,30,12.0,-999.0,71,-99.99,,,-99.99,,2013-01-03 03:02:00,
2013-01-02 22:12:00,5.0,-2.0,30.19,NNE,30,8.0,-999.0,71,-99.99,,,-99.99,,2013-01-03 03:12:00,
2013-01-02 22:22:00,5.0,-2.0,30.20,NNE,30,10.0,-999.0,71,-99.99,,,-99.99,,2013-01-03 03:22:00,
2013-01-02 22:46:00,3.0,-2.0,30.21,NNE,30,7.0,-999.0,77,-99.99,,,-99.99,,2013-01-03 03:46:00,
2013-01-02 22:52:00,3.0,-4.0,30.21,NNE,30,6.0,-999.0,71,-99.99,,,-99.99,,2013-01-03 03:52:00,
2013-01-02 23:02:00,3.0,-4.0,30.21,NNE,30,6.0,-999.0,71,-99.99,,,-99.99,,2013-01-03 04:02:00,
2013-01-02 23:12:00,3.0,-4.0,30.22,NNE,30,7.0,-999.0,71,-99.99,,,-99.99,,2013-01-03 04:12:00,
2013-01-02 23:22:00,1.0,-6.0,30.22,NNE,30,6.0,-999.0,71,-99.99,,,-99.99,,2013-01-03 04:22:00,
2013-01-02 23:32:00,1.0,-6.0,30.23,NNE,20,6.0,-999.0,71,-99.99,,,-99.99,,2013-01-03 04:32:00,
2013-01-02 23:42:00,1.0,-6.0,30.23,NE,40,6.0,-999.0,71,-99.99,,,-99.99,,2013-01-03 04:42:00,
2013-01-02 23:52:00,1.0,-6.0,30.23,NNE,30,5.0,-999.0,71,-99.99,,,-99.99,,2013-01-03 04:52:00,